ThomasiCamargo Heliport

BR-0130 · Rio de Janeiro, Brésil

METAR anciennes BR-0130 · ThomasiCamargo Heliport

Tu vois ci-dessous les METAR des derniers jours. Sélectionne une année pour parcourir les METAR plus anciens, à partir de l'année 2007.

24 mai 2024

Temps Code Temps Temp. Vue Base cloud Vent METAR/SPECI
21:00
V
23 °C 10 km+ - 080° 080° 4 kt METAR SBCP 250000Z 08004KT CAVOK 23/21 Q1013
20:00
V
24 °C 10 km+ - 070° 070° 4 kt METAR SBCP 242300Z 07004KT CAVOK 24/21 Q1013
19:00
V
25 °C 10 km+ - 040° 040° 6 kt METAR SBCP 242200Z 04006KT CAVOK 25/22 Q1013
18:00
V
26 °C 10 km+ - 060° 060° 6 kt METAR SBCP 242100Z 06006KT CAVOK 26/22 Q1012
17:00
V
29 °C 10 km+ - 050° 050° 5 kt METAR SBCP 242000Z 05005KT CAVOK 29/22 Q1012
16:00
V
33 °C 10 km+ - 290° 290° 8 kt METAR SBCP 241900Z 29008KT CAVOK 33/18 Q1011
15:00
V
33 °C 10 km+ - 320° 320° 10 kt METAR SBCP 241800Z 32010KT CAVOK 33/19 Q1011
14:00
V
33 °C 10 km+ - 320° 320° 10 kt METAR SBCP 241700Z 32010KT CAVOK 33/19 Q1012
13:00
V
32 °C 10 km+ - 330° 330° 11 kt METAR SBCP 241600Z 33011KT CAVOK 32/18 Q1012
12:00
V
31 °C 10 km+ - 330° 330° 12 kt METAR SBCP 241500Z 33012KT CAVOK 31/17 Q1013
11:00
V
30 °C 10 km+ - 310° 310° 9 kt METAR SBCP 241400Z 31009KT CAVOK 30/18 Q1014
10:00
V
29 °C 10 km+ - 330° 330° 11 kt METAR SBCP 241300Z 33011KT CAVOK 29/18 Q1015
09:00
V
27 °C 10 km+ - 360° 360° 8 kt METAR SBCP 241200Z 36008KT CAVOK 27/20 Q1015
08:00
V
24 °C 10 km+ - 020° 020° 7 kt METAR SBCP 241100Z 02007KT CAVOK 24/21 Q1015
07:00
V
21 °C 10 km+ - 020° 020° 6 kt METAR SBCP 241000Z 02006KT CAVOK 21/20 Q1015
06:15
V
20 °C 10 km+ - 020° 020° 7 kt METAR SBCP 240915Z 02007KT CAVOK 20/20 Q1014

23 mai 2024

Temps Code Temps Temp. Vue Base cloud Vent METAR/SPECI
21:00
V
23 °C 10 km+ - 060° 060° 5 kt METAR SBCP 240000Z 06005KT CAVOK 23/21 Q1016
20:00
V
22 °C 10 km+ - 050° 050° 6 kt METAR SBCP 232300Z 05006KT CAVOK 22/19 Q1015
19:00
V
25 °C 10 km+ - 030° 030° 9 kt METAR SBCP 232200Z 03009KT CAVOK 25/22 Q1015
18:00
V
25 °C 10 km+ - 040° 040° 9 kt METAR SBCP 232100Z 04009KT CAVOK 25/20 Q1015
17:00
V
26 °C 10 km+ - 040° 040° 11 kt METAR SBCP 232000Z 04011KT CAVOK 26/21 Q1014
16:00
V
28 °C 10 km+ - 050° 050° 16 kt METAR SBCP 231900Z 05016KT CAVOK 28/20 Q1014
15:00
V
29 °C 10 km+ - 060° 060° 14 kt METAR SBCP 231800Z 06014KT CAVOK 29/19 Q1014
14:00
V
31 °C 10 km+ - 070° 070° 13 kt METAR SBCP 231700Z 07013KT 9999 FEW020 31/21 Q1015
13:00
V
32 °C 10 km+ - 010° 010° 8 kt METAR SBCP 231600Z 01008KT CAVOK 32/18 Q1016
12:00
V
31 °C 10 km+ - 340° 340° 6 kt METAR SBCP 231500Z 34006KT CAVOK 31/19 Q1017
11:00
V
28 °C 10 km+ - 310° 310° 9 kt METAR SBCP 231400Z 31009KT CAVOK 28/20 Q1018
10:00
V
27 °C 10 km+ - 320° 320° 11 kt METAR SBCP 231300Z 32011KT CAVOK 27/21 Q1019
09:00
V
25 °C 10 km+ - 330° 330° 10 kt METAR SBCP 231200Z 33010KT CAVOK 25/21 Q1019
08:15
M
23 °C 5 km - 340° 340° 9 kt METAR SBCP 231115Z 34009KT 5000 BR NSC 23/21 Q1019
08:00
I
22 °C 3 km - 350° 350° 7 kt METAR SBCP 231100Z 35007KT 3000 BR NSC 22/21 Q1019
07:00
I
20 °C 1,5 km - 010° 010° 3 kt METAR SBCP 231000Z 01003KT 1500 BR NSC 20/20 Q1018
06:15
I
19 °C 2,5 km - 350° 350° 4 kt METAR SBCP 230915Z 35004KT 2500 BR NSC 19/19 Q1018

22 mai 2024

Temps Code Temps Temp. Vue Base cloud Vent METAR/SPECI
21:00
V
22 °C 10 km+ - 360° 360° 0 kt METAR SBCP 230000Z 00000KT CAVOK 22/22 Q1020
20:00
V
22 °C 10 km+ - 360° 360° 0 kt METAR SBCP 222300Z 00000KT CAVOK 22/22 Q1019
19:00
V
24 °C 10 km+ - 080° 080° 5 kt METAR SBCP 222200Z 08005KT CAVOK 24/21 Q1019
18:00
V
24 °C 10 km+ - 090° 090° 5 kt METAR SBCP 222100Z 09005KT CAVOK 24/21 Q1019
17:00
V
25 °C 10 km+ 9.000 ft 100° 100° 5 kt METAR SBCP 222000Z 10005KT 9999 FEW020 BKN090 25/21 Q1019
16:00
M
26 °C 10 km+ 2.000 ft 120° 120° 7 kt METAR SBCP 221900Z 12007KT 9999 BKN020 BKN090 26/21 Q1018
15:00
M
26 °C 10 km+ 2.000 ft 140° 140° 7 kt METAR SBCP 221800Z 14007KT 9999 BKN020 BKN090 26/20 Q1019
14:00
M
27 °C 10 km+ 2.000 ft 080° 080° 5 kt METAR SBCP 221700Z 08005KT 9999 BKN020 OVC090 27/20 Q1019
13:00
V
27 °C 10 km+ 9.000 ft 110° 110° 2 kt METAR SBCP 221600Z 11002KT 9999 SCT020 OVC090 27/20 Q1020
12:00
V
27 °C 10 km+ 9.000 ft 260° 260° 3 kt METAR SBCP 221500Z 26003KT 9999 SCT020 OVC090 27/20 Q1021
11:00
V
27 °C 10 km+ 9.000 ft 170° 170° 3 kt METAR SBCP 221400Z 17003KT 9999 FEW020 OVC090 27/19 Q1022
10:00
V
26 °C 10 km+ - 250° 250° 3 kt METAR SBCP 221300Z 25003KT CAVOK 26/19 Q1022
09:00
V
24 °C 10 km+ - 240° 240° 5 kt METAR SBCP 221200Z 24005KT CAVOK 24/19 Q1022
08:00
V
23 °C 10 km+ - 270° 270° 5 kt METAR SBCP 221100Z 27005KT CAVOK 23/20 Q1022
07:00
V
21 °C 10 km+ - 250° 250° 4 kt METAR SBCP 221000Z 25004KT CAVOK 21/19 Q1021
06:15
V
20 °C 10 km+ - 240° 240° 4 kt METAR SBCP 220915Z 24004KT CAVOK 20/19 Q1021
Signaler les modifications